Terminal Aerodrome Forecast
Issued by NWS Charleston, WV

Current Version | Previous Version | Text Only | Print | Product List | Glossary Off
Versions: 1 2 3 4 5 6 7 8 9 10 11 12 13 14 15 16 17 18 19 20 21 22 23 24

000
FTUS41 KRLX 281740
TAFCRW
TAF
KCRW 281740Z 2818/2918 VRB03KT P6SM SCT035 BKN090
     FM282000 VRB04KT P6SM VCSH BKN050
     FM282300 00000KT P6SM VCTS BKN050CB
     FM290100 00000KT 6SM BR BKN050
     FM290900 00000KT 6SM BR BKN015
     FM291400 00000KT P6SM BKN015
     FM291600 00000KT P6SM VCTS BKN025CB=

USA.gov is the U.S. government's official web portal to all federal, state and local government web resources and services.